createdAt,value
2018-12-30T00:01:28.575Z,29.81
2018-12-30T00:03:56.779Z,29.84
2018-12-30T00:06:25.341Z,29.83
2018-12-30T00:08:53.919Z,29.84
2018-12-30T00:11:22.187Z,29.84
2018-12-30T00:13:50.409Z,29.84
2018-12-30T00:16:18.611Z,29.82
2018-12-30T00:18:47.199Z,29.83
2018-12-30T00:21:15.421Z,29.85
2018-12-30T00:23:43.617Z,29.88
2018-12-30T00:26:11.849Z,29.88
2018-12-30T00:28:40.050Z,29.86
2018-12-30T00:31:08.273Z,29.87
2018-12-30T00:33:36.489Z,29.91
2018-12-30T00:36:04.681Z,29.86
2018-12-30T00:38:32.916Z,29.88
2018-12-30T00:41:01.109Z,29.88
2018-12-30T00:43:29.337Z,29.89
2018-12-30T00:45:57.568Z,29.87
2018-12-30T00:48:25.787Z,29.88
2018-12-30T00:50:53.999Z,29.89
2018-12-30T00:53:22.220Z,29.90
2018-12-30T00:55:50.518Z,29.92
2018-12-30T00:58:18.746Z,29.92
2018-12-30T01:00:46.975Z,29.92
2018-12-30T01:03:15.193Z,29.97
2018-12-30T01:05:43.402Z,29.93
2018-12-30T01:08:11.637Z,29.98
2018-12-30T01:10:40.236Z,29.91
2018-12-30T01:13:08.437Z,29.95
2018-12-30T01:15:37.025Z,29.97
2018-12-30T01:18:05.237Z,29.94
2018-12-30T01:20:33.463Z,29.97
2018-12-30T01:23:01.671Z,29.98
2018-12-30T01:25:29.888Z,30.00
2018-12-30T01:27:58.084Z,30.00
2018-12-30T01:30:26.592Z,30.02
2018-12-30T01:32:54.788Z,30.01
2018-12-30T01:35:22.994Z,30.04
2018-12-30T01:37:51.226Z,30.02
2018-12-30T01:40:19.466Z,30.03
2018-12-30T01:42:47.687Z,30.03
2018-12-30T01:45:15.915Z,30.02
2018-12-30T01:47:44.128Z,30.00
2018-12-30T01:50:12.320Z,30.04
2018-12-30T01:52:40.533Z,30.02
2018-12-30T01:55:08.787Z,30.01
2018-12-30T01:57:37.268Z,30.06
2018-12-30T02:00:06.332Z,30.06
2018-12-30T02:02:34.531Z,30.03
2018-12-30T02:05:02.767Z,30.05
2018-12-30T02:07:30.962Z,30.07
2018-12-30T02:09:59.225Z,30.08
2018-12-30T02:12:27.397Z,30.05
2018-12-30T02:14:55.606Z,30.07
2018-12-30T02:17:23.830Z,30.06
2018-12-30T02:19:52.067Z,30.07
2018-12-30T02:22:20.253Z,30.06
2018-12-30T02:24:48.764Z,30.05
2018-12-30T02:27:16.981Z,30.08
2018-12-30T02:29:45.185Z,30.06
2018-12-30T02:32:13.383Z,30.10
2018-12-30T02:34:41.605Z,30.08
2018-12-30T02:37:10.074Z,30.08
2018-12-30T02:39:38.299Z,30.10
2018-12-30T02:42:06.506Z,30.07
2018-12-30T02:44:34.713Z,30.09
2018-12-30T02:47:03.166Z,30.09
2018-12-30T02:49:31.382Z,30.09
2018-12-30T02:51:59.609Z,30.09
2018-12-30T02:54:27.811Z,30.09
2018-12-30T02:56:56.024Z,30.10
2018-12-30T02:59:24.249Z,30.10
2018-12-30T03:01:52.472Z,30.13
2018-12-30T03:04:20.695Z,30.11
2018-12-30T03:06:48.894Z,30.15
2018-12-30T03:09:17.103Z,30.13
2018-12-30T03:11:45.325Z,30.12
2018-12-30T03:14:13.535Z,30.11
2018-12-30T03:16:41.761Z,30.12
2018-12-30T03:19:09.943Z,30.09
2018-12-30T03:21:38.148Z,30.11
2018-12-30T03:24:06.373Z,30.13
2018-12-30T03:26:34.568Z,30.13
2018-12-30T03:29:02.803Z,30.11
2018-12-30T03:31:31.036Z,30.12
2018-12-30T03:33:59.237Z,30.14
2018-12-30T03:36:27.463Z,30.15
2018-12-30T03:38:55.689Z,30.15
2018-12-30T03:41:23.885Z,30.12
2018-12-30T03:43:52.106Z,30.17
2018-12-30T03:46:20.293Z,30.14
2018-12-30T03:48:48.511Z,30.14
2018-12-30T03:51:16.707Z,30.13
2018-12-30T03:53:44.927Z,30.15
2018-12-30T03:56:13.154Z,30.15
2018-12-30T03:58:41.359Z,30.16
2018-12-30T04:01:09.575Z,30.17
2018-12-30T04:03:37.817Z,30.15
2018-12-30T04:06:06.043Z,30.20
2018-12-30T04:08:34.269Z,30.18
2018-12-30T04:11:02.477Z,30.14
2018-12-30T04:13:30.680Z,30.15
2018-12-30T04:15:58.884Z,30.19
2018-12-30T04:18:27.107Z,30.22
2018-12-30T04:20:55.339Z,30.17
2018-12-30T04:23:23.561Z,30.19
2018-12-30T04:25:51.771Z,30.17
2018-12-30T04:28:19.993Z,30.15
2018-12-30T04:30:48.196Z,30.13
2018-12-30T04:33:16.416Z,30.18
2018-12-30T04:35:44.604Z,30.12
2018-12-30T04:38:12.838Z,30.13
2018-12-30T04:40:41.072Z,30.18
2018-12-30T04:43:09.280Z,30.19
2018-12-30T04:45:37.502Z,30.21
2018-12-30T04:48:05.812Z,30.21
2018-12-30T04:50:34.006Z,30.15
2018-12-30T04:53:02.246Z,30.18
2018-12-30T04:55:30.476Z,30.17
2018-12-30T04:57:58.702Z,30.17
2018-12-30T05:00:26.907Z,30.17
2018-12-30T05:02:55.142Z,30.18
2018-12-30T05:05:23.369Z,30.21
2018-12-30T05:07:51.557Z,30.19
2018-12-30T05:10:19.783Z,30.18
2018-12-30T05:12:48.024Z,30.17
2018-12-30T05:15:16.221Z,30.17
2018-12-30T05:17:44.426Z,30.21
2018-12-30T05:20:12.638Z,30.22
2018-12-30T05:22:40.849Z,30.16
2018-12-30T05:25:09.056Z,30.22
2018-12-30T05:27:37.264Z,30.21
2018-12-30T05:30:06.357Z,30.17
2018-12-30T05:32:34.564Z,30.20
2018-12-30T05:35:02.874Z,30.20
2018-12-30T05:37:31.088Z,30.21
2018-12-30T05:39:59.290Z,30.24
2018-12-30T05:42:27.512Z,30.25
2018-12-30T05:44:55.748Z,30.23
2018-12-30T05:47:23.962Z,30.21
2018-12-30T05:49:52.179Z,30.18
2018-12-30T05:52:20.377Z,30.22
2018-12-30T05:54:48.613Z,30.23
2018-12-30T05:57:16.813Z,30.24
2018-12-30T05:59:45.028Z,30.24
2018-12-30T06:02:13.263Z,30.21
2018-12-30T06:04:41.475Z,30.20
2018-12-30T06:07:09.695Z,30.24
2018-12-30T06:09:37.891Z,30.25
2018-12-30T06:12:06.123Z,30.26
2018-12-30T06:14:34.335Z,30.23
2018-12-30T06:17:02.575Z,30.25
2018-12-30T06:19:30.772Z,30.26
2018-12-30T06:21:58.959Z,30.27
2018-12-30T06:24:27.187Z,30.31
2018-12-30T06:26:55.406Z,30.30
2018-12-30T06:29:23.616Z,30.29
2018-12-30T06:31:51.851Z,30.28
2018-12-30T06:34:20.091Z,30.29
2018-12-30T06:36:48.318Z,30.32
2018-12-30T06:39:16.522Z,30.33
2018-12-30T06:41:44.714Z,30.30
2018-12-30T06:44:12.925Z,30.30
2018-12-30T06:46:41.128Z,30.30
2018-12-30T06:49:10.628Z,30.33
2018-12-30T06:51:38.938Z,30.30
2018-12-30T06:54:07.143Z,30.37
2018-12-30T06:56:35.372Z,30.33
2018-12-30T06:59:03.568Z,30.32
2018-12-30T07:01:31.804Z,30.35
2018-12-30T07:04:00.026Z,30.36
2018-12-30T07:06:28.230Z,30.38
2018-12-30T07:08:56.452Z,30.37
2018-12-30T07:11:24.672Z,30.38
2018-12-30T07:13:52.875Z,30.38
2018-12-30T07:16:21.092Z,30.41
2018-12-30T07:18:49.290Z,30.35
2018-12-30T07:21:17.514Z,30.39
2018-12-30T07:23:45.717Z,30.41
2018-12-30T07:26:13.924Z,30.39
2018-12-30T07:28:42.124Z,30.43
2018-12-30T07:31:10.342Z,30.43
2018-12-30T07:33:38.554Z,30.38
2018-12-30T07:36:06.787Z,30.40
2018-12-30T07:38:34.984Z,30.44
2018-12-30T07:41:03.204Z,30.43
2018-12-30T07:43:31.438Z,30.44
2018-12-30T07:45:59.696Z,30.43
2018-12-30T07:48:27.906Z,30.42
2018-12-30T07:50:56.106Z,30.44
2018-12-30T07:53:24.341Z,30.48
2018-12-30T07:55:52.544Z,30.46
2018-12-30T07:58:20.755Z,30.49
2018-12-30T08:00:48.961Z,30.45
2018-12-30T08:03:17.153Z,30.48
2018-12-30T08:05:45.366Z,30.46
2018-12-30T08:08:13.592Z,30.44
2018-12-30T08:10:41.869Z,30.44
2018-12-30T08:13:10.012Z,30.44
2018-12-30T08:15:38.215Z,30.42
2018-12-30T08:18:06.438Z,30.46
2018-12-30T08:20:34.643Z,30.47
2018-12-30T08:23:02.886Z,30.44
2018-12-30T08:25:31.089Z,30.47
2018-12-30T08:27:59.339Z,30.46
2018-12-30T08:30:27.537Z,30.49
2018-12-30T08:32:55.740Z,30.49
2018-12-30T08:35:23.979Z,30.50
2018-12-30T08:37:52.219Z,30.48
2018-12-30T08:40:20.434Z,30.52
2018-12-30T08:42:48.621Z,30.49
2018-12-30T08:45:16.841Z,30.54
2018-12-30T08:47:45.055Z,30.53
2018-12-30T08:50:13.247Z,30.52
2018-12-30T08:52:41.460Z,30.55
2018-12-30T08:55:09.691Z,30.52
2018-12-30T08:57:37.903Z,30.52
2018-12-30T09:00:06.766Z,30.54
2018-12-30T09:02:35.013Z,30.56
2018-12-30T09:05:03.250Z,30.56
2018-12-30T09:07:31.458Z,30.55
2018-12-30T09:09:59.649Z,30.59
2018-12-30T09:12:27.867Z,30.57
2018-12-30T09:14:56.061Z,30.57
2018-12-30T09:17:24.285Z,30.58
2018-12-30T09:19:52.488Z,30.58
2018-12-30T09:22:20.695Z,30.57
2018-12-30T09:24:48.895Z,30.64
2018-12-30T09:27:17.109Z,30.63
2018-12-30T09:29:45.333Z,30.59
2018-12-30T09:32:13.538Z,30.59
2018-12-30T09:34:41.773Z,30.61
2018-12-30T09:37:09.967Z,30.60
2018-12-30T09:39:38.184Z,30.68
2018-12-30T09:42:06.384Z,30.66
2018-12-30T09:44:34.607Z,30.67
2018-12-30T09:47:02.814Z,30.71
2018-12-30T09:49:31.039Z,30.71
2018-12-30T09:51:59.257Z,30.71
2018-12-30T09:54:27.467Z,30.71
2018-12-30T09:56:55.673Z,30.71
2018-12-30T09:59:23.921Z,30.68
2018-12-30T10:01:52.125Z,30.68
2018-12-30T10:04:20.323Z,30.86
2018-12-30T10:06:48.561Z,30.86
2018-12-30T10:09:16.803Z,30.94
2018-12-30T10:11:45.013Z,30.90
2018-12-30T10:14:13.245Z,30.92
2018-12-30T10:16:41.479Z,30.92
2018-12-30T10:19:09.967Z,30.94
2018-12-30T10:21:38.261Z,31.02
2018-12-30T10:24:06.501Z,31.06
2018-12-30T10:26:34.703Z,31.11
2018-12-30T10:29:02.899Z,31.12
2018-12-30T10:31:31.126Z,31.03
2018-12-30T10:33:59.325Z,31.05
2018-12-30T10:36:27.549Z,31.16
2018-12-30T10:38:55.768Z,31.15
2018-12-30T10:41:23.985Z,31.19
2018-12-30T10:43:52.171Z,31.17
2018-12-30T10:46:20.403Z,31.23
2018-12-30T10:48:48.604Z,31.20
2018-12-30T10:51:16.818Z,31.19
2018-12-30T10:53:45.010Z,31.16
2018-12-30T10:56:13.234Z,31.23
2018-12-30T10:58:41.497Z,31.18
2018-12-30T11:01:09.673Z,31.21
2018-12-30T11:03:37.910Z,31.18
2018-12-30T11:06:06.135Z,31.19
2018-12-30T11:08:34.361Z,31.16
2018-12-30T11:11:02.568Z,31.22
2018-12-30T11:13:30.785Z,31.25
2018-12-30T11:15:58.994Z,31.45
2018-12-30T11:18:27.205Z,31.37
2018-12-30T11:20:55.401Z,31.35
2018-12-30T11:23:23.605Z,31.36
2018-12-30T11:25:51.831Z,31.46
2018-12-30T11:28:20.031Z,31.51
2018-12-30T11:30:48.268Z,31.49
2018-12-30T11:33:16.474Z,31.49
2018-12-30T11:35:44.707Z,31.93
2018-12-30T11:38:12.922Z,31.62
2018-12-30T11:40:41.123Z,31.57
2018-12-30T11:43:09.318Z,31.50
2018-12-30T11:45:37.550Z,31.61
2018-12-30T11:48:05.749Z,32.24
2018-12-30T11:50:33.960Z,31.64
2018-12-30T11:53:02.154Z,31.66
2018-12-30T11:55:30.373Z,31.55
2018-12-30T11:57:58.576Z,31.57
2018-12-30T12:00:26.834Z,31.61
2018-12-30T12:02:55.053Z,31.69
2018-12-30T12:05:23.274Z,31.66
2018-12-30T12:07:51.488Z,31.56
2018-12-30T12:10:19.702Z,31.59
2018-12-30T12:12:49.124Z,31.61
2018-12-30T12:15:17.730Z,31.65
2018-12-30T12:17:45.976Z,31.59
2018-12-30T12:20:14.171Z,31.57
2018-12-30T12:22:42.381Z,31.54
2018-12-30T12:25:10.647Z,31.73
2018-12-30T12:27:38.840Z,31.88
2018-12-30T12:30:07.588Z,32.21
2018-12-30T12:32:35.839Z,32.08
2018-12-30T12:35:04.323Z,32.25
2018-12-30T12:37:32.538Z,32.40
2018-12-30T12:40:00.758Z,32.57
2018-12-30T12:42:29.009Z,32.48
2018-12-30T12:44:57.243Z,32.68
2018-12-30T12:47:25.444Z,32.49
2018-12-30T12:49:53.660Z,32.63
2018-12-30T12:52:21.867Z,33.09
2018-12-30T12:54:50.096Z,32.97
2018-12-30T12:57:18.314Z,33.06
2018-12-30T12:59:46.559Z,32.96
2018-12-30T13:02:14.787Z,32.99
2018-12-30T13:04:42.992Z,32.84
2018-12-30T13:07:11.207Z,32.90
2018-12-30T13:09:39.427Z,32.93
2018-12-30T13:12:07.656Z,32.76
2018-12-30T13:14:35.891Z,32.72
2018-12-30T13:17:04.121Z,32.72
2018-12-30T13:19:32.346Z,32.72
2018-12-30T13:22:00.557Z,32.63
2018-12-30T13:24:28.785Z,32.70
2018-12-30T13:26:57.020Z,32.59
2018-12-30T13:29:25.227Z,32.66
2018-12-30T13:31:53.458Z,32.63
2018-12-30T13:34:21.674Z,32.60
2018-12-30T13:36:49.860Z,32.47
2018-12-30T13:39:18.102Z,32.55
2018-12-30T13:41:46.308Z,32.54
2018-12-30T13:44:14.554Z,32.61
2018-12-30T13:46:42.782Z,32.50
2018-12-30T13:49:10.987Z,32.59
2018-12-30T13:51:39.196Z,32.48
2018-12-30T13:54:07.419Z,32.43
2018-12-30T13:56:35.640Z,32.49
2018-12-30T13:59:03.880Z,32.46
2018-12-30T14:01:32.158Z,32.52
2018-12-30T14:04:00.438Z,32.39
2018-12-30T14:06:28.642Z,32.41
2018-12-30T14:08:56.864Z,32.38
2018-12-30T14:11:25.092Z,32.38
2018-12-30T14:13:53.321Z,32.38
2018-12-30T14:16:21.525Z,32.37
2018-12-30T14:18:49.758Z,32.32
2018-12-30T14:21:17.952Z,32.28
2018-12-30T14:23:46.167Z,32.29
2018-12-30T14:26:14.563Z,32.26
2018-12-30T14:28:42.793Z,32.21
2018-12-30T14:31:11.009Z,32.27
2018-12-30T14:33:39.246Z,32.23
2018-12-30T14:36:07.459Z,32.16
2018-12-30T14:38:35.680Z,32.16
2018-12-30T14:41:03.904Z,32.18
2018-12-30T14:43:32.290Z,32.11
2018-12-30T14:46:00.499Z,32.07
2018-12-30T14:48:28.727Z,32.12
2018-12-30T14:50:56.945Z,32.05
2018-12-30T14:53:25.175Z,32.04
2018-12-30T14:55:53.385Z,32.07
2018-12-30T14:58:21.609Z,32.04
2018-12-30T15:00:49.835Z,32.14
2018-12-30T15:03:18.083Z,32.05
2018-12-30T15:05:46.279Z,32.02
2018-12-30T15:08:14.618Z,32.01
2018-12-30T15:10:42.837Z,32.01
2018-12-30T15:13:11.053Z,32.01
2018-12-30T15:15:39.283Z,32.10
2018-12-30T15:18:07.509Z,32.03
2018-12-30T15:20:35.755Z,32.03
2018-12-30T15:23:03.957Z,31.96
2018-12-30T15:25:32.182Z,31.93
2018-12-30T15:28:00.412Z,31.98
2018-12-30T15:30:28.612Z,31.99
2018-12-30T15:32:56.849Z,32.08
2018-12-30T15:35:25.037Z,32.08
2018-12-30T15:37:53.297Z,32.11
2018-12-30T15:40:21.476Z,32.09
2018-12-30T15:42:49.719Z,31.99
2018-12-30T15:45:17.938Z,32.03
2018-12-30T15:47:46.145Z,32.02
2018-12-30T15:50:14.373Z,32.13
2018-12-30T15:52:42.569Z,32.03
2018-12-30T15:55:10.819Z,32.08
2018-12-30T15:57:39.011Z,32.14
2018-12-30T16:00:09.168Z,32.20
2018-12-30T16:02:37.390Z,32.19
2018-12-30T16:05:05.759Z,32.20
2018-12-30T16:07:33.999Z,32.26
2018-12-30T16:10:02.204Z,32.22
2018-12-30T16:12:30.438Z,32.23
2018-12-30T16:14:58.629Z,32.19
2018-12-30T16:17:26.832Z,32.28
2018-12-30T16:19:55.250Z,32.16
2018-12-30T16:22:23.479Z,32.21
2018-12-30T16:24:51.691Z,32.15
2018-12-30T16:27:19.907Z,32.24
2018-12-30T16:29:48.145Z,32.28
2018-12-30T16:32:16.337Z,32.33
2018-12-30T16:34:44.560Z,32.21
2018-12-30T16:37:12.794Z,32.33
2018-12-30T16:39:41.012Z,32.38
2018-12-30T16:42:09.263Z,32.35
2018-12-30T16:44:37.491Z,32.40
2018-12-30T16:47:05.707Z,32.32
2018-12-30T16:49:33.957Z,32.34
2018-12-30T16:52:02.156Z,32.31
2018-12-30T16:54:30.567Z,32.47
2018-12-30T16:56:58.784Z,32.37
2018-12-30T16:59:27.008Z,32.32
2018-12-30T17:01:55.225Z,32.36
2018-12-30T17:04:23.472Z,32.36
2018-12-30T17:06:51.691Z,32.43
2018-12-30T17:09:19.932Z,32.38
2018-12-30T17:11:48.144Z,32.62
2018-12-30T17:14:16.340Z,32.51
2018-12-30T17:16:44.576Z,32.56
2018-12-30T17:19:12.806Z,32.62
2018-12-30T17:21:41.025Z,32.63
2018-12-30T17:24:09.254Z,32.69
2018-12-30T17:26:37.464Z,32.75
2018-12-30T17:29:05.696Z,32.62
2018-12-30T17:31:33.933Z,32.64
2018-12-30T17:34:02.178Z,32.57
2018-12-30T17:36:30.368Z,32.51
2018-12-30T17:38:58.612Z,32.50
2018-12-30T17:41:26.830Z,32.57
2018-12-30T17:43:55.052Z,32.51
2018-12-30T17:46:23.275Z,32.54
2018-12-30T17:48:51.486Z,32.52
2018-12-30T17:51:19.696Z,32.52
2018-12-30T17:53:47.909Z,32.51
2018-12-30T17:56:16.112Z,32.54
2018-12-30T17:58:44.338Z,32.66
2018-12-30T18:01:12.556Z,32.60
2018-12-30T18:03:40.782Z,32.66
2018-12-30T18:06:09.007Z,32.69
2018-12-30T18:08:37.244Z,32.89
2018-12-30T18:11:05.462Z,32.83
2018-12-30T18:13:33.688Z,32.93
2018-12-30T18:16:01.894Z,32.90
2018-12-30T18:18:30.122Z,32.86
2018-12-30T18:20:58.335Z,32.92
2018-12-30T18:23:26.552Z,32.85
2018-12-30T18:25:58.554Z,32.76
2018-12-30T18:28:24.740Z,32.84
2018-12-30T18:30:52.952Z,32.80
2018-12-30T18:33:21.192Z,32.79
2018-12-30T18:35:49.406Z,32.82
2018-12-30T18:38:17.645Z,32.71
2018-12-30T18:40:45.874Z,32.70
2018-12-30T18:43:14.127Z,32.85
2018-12-30T18:45:42.332Z,32.74
2018-12-30T18:48:10.549Z,32.80
2018-12-30T18:50:38.792Z,32.85
2018-12-30T18:53:07.007Z,33.02
2018-12-30T18:55:35.236Z,32.81
2018-12-30T18:58:03.436Z,32.80
2018-12-30T19:00:31.687Z,32.99
2018-12-30T19:02:59.882Z,32.96
2018-12-30T19:05:28.111Z,33.02
2018-12-30T19:07:56.333Z,33.02
2018-12-30T19:10:24.536Z,33.19
2018-12-30T19:12:52.754Z,33.19
2018-12-30T19:15:21.004Z,33.15
2018-12-30T19:17:49.218Z,33.10
2018-12-30T19:20:17.429Z,33.08
2018-12-30T19:22:45.655Z,33.05
2018-12-30T19:25:13.875Z,33.04
2018-12-30T19:27:42.065Z,33.10
2018-12-30T19:30:10.778Z,33.05
2018-12-30T19:32:38.999Z,33.14
2018-12-30T19:35:07.192Z,33.20
2018-12-30T19:37:35.415Z,33.26
2018-12-30T19:40:05.456Z,33.25
2018-12-30T19:42:33.695Z,33.12
2018-12-30T19:45:01.916Z,33.07
2018-12-30T19:47:30.159Z,33.01
2018-12-30T19:49:58.374Z,33.23
2018-12-30T19:52:26.585Z,33.47
2018-12-30T19:54:54.828Z,33.26
2018-12-30T19:57:23.980Z,34.05
2018-12-30T19:59:52.207Z,33.74
2018-12-30T20:02:20.426Z,33.52
2018-12-30T20:04:48.666Z,33.21
2018-12-30T20:07:16.900Z,33.05
2018-12-30T20:09:45.130Z,32.98
2018-12-30T20:12:13.327Z,32.88
2018-12-30T20:14:43.378Z,32.77
2018-12-30T20:17:11.508Z,32.73
2018-12-30T20:19:39.738Z,32.74
2018-12-30T20:22:08.006Z,32.68
2018-12-30T20:24:36.215Z,32.64
2018-12-30T20:27:04.405Z,32.63
2018-12-30T20:29:32.636Z,32.65
2018-12-30T20:32:00.832Z,32.65
2018-12-30T20:34:29.123Z,32.55
2018-12-30T20:36:57.322Z,32.60
2018-12-30T20:39:25.528Z,32.60
2018-12-30T20:41:53.759Z,32.57
2018-12-30T20:44:21.965Z,32.56
2018-12-30T20:46:50.214Z,32.52
2018-12-30T20:49:18.415Z,32.47
2018-12-30T20:51:46.664Z,32.45
2018-12-30T20:54:14.866Z,32.41
2018-12-30T20:56:43.099Z,32.44
2018-12-30T20:59:11.318Z,32.42
2018-12-30T21:01:39.555Z,32.41
2018-12-30T21:04:07.752Z,32.40
2018-12-30T21:06:35.971Z,32.39
2018-12-30T21:09:05.318Z,32.39
2018-12-30T21:11:33.546Z,32.39
2018-12-30T21:14:01.752Z,32.36
2018-12-30T21:16:29.970Z,32.31
2018-12-30T21:18:58.180Z,32.30
2018-12-30T21:21:26.405Z,32.33
2018-12-30T21:23:54.629Z,32.29
2018-12-30T21:26:22.834Z,32.30
2018-12-30T21:28:51.077Z,32.27
2018-12-30T21:31:19.291Z,32.29
2018-12-30T21:33:47.554Z,32.31
2018-12-30T21:36:15.798Z,32.27
2018-12-30T21:38:43.998Z,32.30
2018-12-30T21:41:12.217Z,32.27
2018-12-30T21:43:40.434Z,32.30
2018-12-30T21:46:08.747Z,32.31
2018-12-30T21:48:36.982Z,32.26
2018-12-30T21:51:05.190Z,32.23
2018-12-30T21:53:33.420Z,32.28
2018-12-30T21:56:01.683Z,32.27
2018-12-30T21:58:29.857Z,32.28
2018-12-30T22:00:58.103Z,32.27
2018-12-30T22:03:26.313Z,32.27
2018-12-30T22:05:54.540Z,32.25
2018-12-30T22:08:22.843Z,32.25
2018-12-30T22:10:51.038Z,32.27
2018-12-30T22:13:19.253Z,32.26
2018-12-30T22:15:47.491Z,32.28
2018-12-30T22:18:15.692Z,32.26
2018-12-30T22:20:43.939Z,32.26
2018-12-30T22:23:12.137Z,32.24
2018-12-30T22:25:42.148Z,32.28
2018-12-30T22:28:10.460Z,32.25
2018-12-30T22:30:38.676Z,32.23
2018-12-30T22:33:06.945Z,32.25
2018-12-30T22:35:35.153Z,32.22
2018-12-30T22:38:03.358Z,32.24
2018-12-30T22:40:31.559Z,32.27
2018-12-30T22:42:59.795Z,32.29
2018-12-30T22:45:28.070Z,32.25
2018-12-30T22:47:56.309Z,32.23
2018-12-30T22:50:24.521Z,32.27
2018-12-30T22:52:52.766Z,32.22
2018-12-30T22:55:20.975Z,32.22
2018-12-30T22:57:49.162Z,32.22
2018-12-30T23:00:34.937Z,32.21
2018-12-30T23:03:03.172Z,32.21
2018-12-30T23:05:31.380Z,32.19
2018-12-30T23:07:59.625Z,32.18
2018-12-30T23:10:27.847Z,32.23
2018-12-30T23:12:56.057Z,32.21
2018-12-30T23:15:24.290Z,32.23
2018-12-30T23:17:52.495Z,32.24
2018-12-30T23:20:20.714Z,32.23
2018-12-30T23:22:48.927Z,32.26
2018-12-30T23:25:17.114Z,32.25
2018-12-30T23:27:45.364Z,32.25
2018-12-30T23:30:13.571Z,32.25
2018-12-30T23:32:41.774Z,32.27
2018-12-30T23:35:10.013Z,32.22
2018-12-30T23:37:38.236Z,32.24
2018-12-30T23:40:06.439Z,32.25
2018-12-30T23:42:34.667Z,32.27
2018-12-30T23:45:02.899Z,32.26
2018-12-30T23:47:31.149Z,32.25
2018-12-30T23:49:59.365Z,32.24
2018-12-30T23:52:27.552Z,32.27
2018-12-30T23:54:55.764Z,32.32
2018-12-30T23:57:23.961Z,32.30
2018-12-30T23:59:52.195Z,32.25
